Time;durP1;ratioP1;P1;durP2;ratioP2;P2;SDS_P1;SDS_P2;PMS_P1;PMS_P2;Temp;Humidity;BMP_temperature;BMP_pressure;BME280_temperature;BME280_humidity;BME280_pressure;Samples;Min_cycle;Max_cycle;Signal;HPM_P1;HPM_P2
2023/07/02 00:06:02;;;;;;;18.33;10.45;;;;;;;23.04;100.00;100632.03;21215716;27;20078;-76
2023/07/02 00:16:26;;;;;;;14.63;10.27;;;;;;;22.86;100.00;100630.06;21204479;27;20055;-77
2023/07/02 00:26:49;;;;;;;14.45;10.48;;;;;;;22.86;100.00;100624.66;21229626;27;20043;-77
2023/07/02 00:37:13;;;;;;;16.80;10.35;;;;;;;22.74;100.00;100617.94;21197294;27;20062;-77
2023/07/02 00:47:36;;;;;;;15.90;10.57;;;;;;;22.63;100.00;100617.41;21189407;27;20092;-77
2023/07/02 00:58:02;;;;;;;14.80;10.52;;;;;;;22.53;100.00;100626.75;21206558;27;20054;-77
2023/07/02 01:08:25;;;;;;;17.05;10.40;;;;;;;22.33;100.00;100608.63;21198696;27;20057;-77
2023/07/02 01:18:50;;;;;;;13.95;10.90;;;;;;;;;;21198525;27;20043;-77
2023/07/02 01:29:20;;;;;;;15.05;10.68;;;;;;;22.24;100.00;100585.63;21197135;27;20047;-76
2023/07/02 01:39:42;;;;;;;14.57;10.10;;;;;;;22.26;100.00;100589.13;21218935;27;20047;-76
2023/07/02 01:50:09;;;;;;;16.20;11.13;;;;;;;21.71;100.00;100589.22;21223228;27;20055;-76
2023/07/02 02:00:31;;;;;;;20.27;13.18;;;;;;;21.56;100.00;100597.78;21209982;27;20043;-77
2023/07/02 02:10:55;;;;;;;17.42;12.60;;;;;;;21.99;100.00;100597.28;21200289;27;20554;-76
2023/07/02 02:21:18;;;;;;;17.33;11.45;;;;;;;21.94;100.00;100594.69;21209549;27;20133;-76
2023/07/02 02:31:43;;;;;;;18.55;13.00;;;;;;;21.84;100.00;100594.16;21213108;27;20096;-76
2023/07/02 02:42:07;;;;;;;22.13;14.30;;;;;;;21.82;100.00;100595.13;21204118;27;20047;-76
2023/07/02 02:52:32;;;;;;;21.20;13.45;;;;;;;21.78;100.00;100606.91;21204586;27;20414;-77
2023/07/02 03:02:55;;;;;;;19.52;14.25;;;;;;;21.64;100.00;100607.34;21215048;27;20398;-77
2023/07/02 03:13:19;;;;;;;24.15;15.63;;;;;;;21.56;100.00;100608.53;21202871;27;20055;-77
2023/07/02 03:23:44;;;;;;;20.27;14.55;;;;;;;21.57;100.00;100607.59;21216291;27;20064;-76
2023/07/02 03:34:11;;;;;;;22.00;13.82;;;;;;;21.88;100.00;100611.03;21204214;27;20602;-76
2023/07/02 03:44:33;;;;;;;22.08;15.43;;;;;;;22.05;100.00;100605.16;21215455;27;20487;-77
2023/07/02 03:54:59;;;;;;;20.25;14.60;;;;;;;22.44;100.00;100614.50;21198934;27;20582;-76
2023/07/02 04:05:21;;;;;;;20.88;14.38;;;;;;;22.87;100.00;100611.16;21202959;27;20045;-76
2023/07/02 04:15:46;;;;;;;20.85;14.38;;;;;;;23.37;100.00;100619.97;21197197;27;20051;-77
2023/07/02 04:26:08;;;;;;;22.65;14.95;;;;;;;23.90;100.00;100624.16;21178015;27;20054;-77
2023/07/02 04:36:32;;;;;;;20.40;14.68;;;;;;;24.49;100.00;100630.63;21197284;27;20100;-77
2023/07/02 04:46:55;;;;;;;24.20;16.08;;;;;;;25.07;100.00;100629.88;21200956;27;20047;-77
2023/07/02 04:57:19;;;;;;;24.38;14.68;;;;;;;25.80;100.00;100627.25;21211033;27;20035;-76
2023/07/02 05:07:42;;;;;;;21.38;14.95;;;;;;;26.51;100.00;100626.34;21190170;27;20039;-77
2023/07/02 05:18:07;;;;;;;24.55;16.63;;;;;;;27.12;100.00;100635.72;21201669;27;20047;-77
2023/07/02 05:28:30;;;;;;;23.15;15.68;;;;;;;27.95;100.00;100627.41;21200463;27;20040;-77
2023/07/02 05:38:55;;;;;;;15.75;9.90;;;;;;;28.70;100.00;100627.38;21195382;27;20080;-78
2023/07/02 05:49:17;;;;;;;17.23;9.32;;;;;;;29.29;100.00;100633.66;21188985;27;20284;-75
2023/07/02 05:59:41;;;;;;;12.75;6.57;;;;;;;29.78;100.00;100625.94;21212016;27;20047;-75
2023/07/02 06:10:05;;;;;;;13.30;6.18;;;;;;;30.40;100.00;100620.81;21208494;28;20398;-76
2023/07/02 06:20:29;;;;;;;12.68;6.25;;;;;;;31.48;100.00;100621.31;21215718;27;20062;-76
2023/07/02 06:30:51;;;;;;;11.15;6.45;;;;;;;32.49;97.37;100614.59;21201974;27;20530;-76
2023/07/02 06:41:15;;;;;;;11.20;7.45;;;;;;;33.16;86.58;100613.72;21204835;27;20053;-76
2023/07/02 06:51:38;;;;;;;10.23;6.15;;;;;;;33.37;81.76;100615.72;21205957;27;20043;-75
2023/07/02 07:02:03;;;;;;;10.82;7.00;;;;;;;33.26;77.48;100605.66;21205560;27;20047;-75
2023/07/02 07:12:25;;;;;;;10.07;6.13;;;;;;;33.20;82.40;100611.66;21211490;27;20047;-75
2023/07/02 07:22:50;;;;;;;7.40;5.28;;;;;;;33.15;86.39;100609.22;21204775;27;20546;-75
2023/07/02 07:33:13;;;;;;;13.07;7.43;;;;;;;33.44;87.46;100616.97;21205793;27;20735;-75
2023/07/02 07:43:38;;;;;;;10.80;5.93;;;;;;;33.75;82.20;100624.41;21213277;27;20055;-75
2023/07/02 07:54:01;;;;;;;14.60;7.57;;;;;;;34.17;67.35;100624.56;21188513;27;20055;-76
2023/07/02 08:04:25;;;;;;;11.57;7.80;;;;;;;34.21;63.47;100632.41;21215244;27;20059;-76
2023/07/02 08:14:48;;;;;;;11.38;8.23;;;;;;;34.63;51.31;100636.06;21185496;27;20058;-75
2023/07/02 08:25:12;;;;;;;11.05;8.13;;;;;;;34.92;47.74;100639.03;21102224;28;20051;-76
2023/07/02 08:35:35;;;;;;;12.30;8.45;;;;;;;35.17;47.21;100645.97;21082720;28;20051;-75
2023/07/02 08:46:00;;;;;;;17.58;12.38;;;;;;;35.48;37.62;100622.13;21098766;28;20047;-76
2023/07/02 08:56:23;;;;;;;17.17;12.77;;;;;;;35.41;36.46;100602.59;21099555;28;20428;-76
2023/07/02 09:06:49;;;;;;;18.98;14.10;;;;;;;35.39;36.56;100599.13;21054377;28;20058;-76
2023/07/02 09:17:11;;;;;;;18.05;13.35;;;;;;;35.82;36.41;100614.47;21137958;27;20415;-76
2023/07/02 09:27:41;;;;;;;18.17;14.02;;;;;;;36.36;34.33;100621.34;21194712;27;20058;-77
2023/07/02 09:38:03;;;;;;;19.23;11.95;;;;;;;36.62;34.70;100611.47;21209021;27;20067;-77
2023/07/02 09:48:33;;;;;;;16.73;10.82;;;;;;;36.62;36.38;100593.06;21197956;27;20046;-76
2023/07/02 09:58:58;;;;;;;19.63;12.75;;;;;;;36.57;35.83;100597.25;21212725;27;20051;-77
2023/07/02 10:09:35;;;;;;;;;;;;;;;36.36;35.87;100582.84;21203409;27;20046;-77
2023/07/02 10:19:59;;;;;;;19.55;15.13;;;;;;;36.15;33.04;100572.81;21186358;27;19971;-77
2023/07/02 10:30:35;;;;;;;18.90;14.53;;;;;;;35.81;34.03;100544.00;21194055;27;20047;-75
2023/07/02 10:40:57;;;;;;;17.57;13.03;;;;;;;35.97;35.40;100545.16;21208871;27;20058;-77
2023/07/02 10:51:23;;;;;;;16.25;11.43;;;;;;;36.09;35.91;100532.16;21223904;27;20317;-76
2023/07/02 11:01:51;;;;;;;16.65;10.70;;;;;;;36.19;39.57;100524.78;21206785;27;20854;-76
2023/07/02 11:12:16;;;;;;;16.15;10.02;;;;;;;36.22;41.39;100509.88;21202146;27;20077;-76
2023/07/02 11:22:40;;;;;;;15.27;10.30;;;;;;;36.33;41.85;100515.22;21158094;27;20066;-77
2023/07/02 11:33:04;;;;;;;16.37;10.03;;;;;;;35.58;45.64;100496.66;21156845;27;20143;-77
2023/07/02 11:43:27;;;;;;;15.38;9.20;;;;;;;35.12;50.46;100511.84;21146493;27;20445;-78
2023/07/02 11:53:52;;;;;;;15.73;10.32;;;;;;;35.17;50.23;100490.34;21108756;28;20514;-76
2023/07/02 12:04:16;;;;;;;19.27;11.60;;;;;;;35.02;45.53;100490.88;21113047;27;20039;-77
2023/07/02 12:14:43;;;;;;;17.80;11.75;;;;;;;35.09;42.66;100494.81;21170729;27;20055;-77
2023/07/02 12:25:06;;;;;;;19.48;12.77;;;;;;;35.08;40.05;100482.09;21199367;27;20150;-77
2023/07/02 12:35:32;;;;;;;15.00;8.32;;;;;;;35.09;47.63;100472.84;21210258;27;20043;-76
2023/07/02 12:45:55;;;;;;;12.13;7.53;;;;;;;34.74;52.67;100465.94;21203759;27;20051;-75
2023/07/02 12:56:20;;;;;;;12.75;7.03;;;;;;;34.60;56.13;100466.25;21226263;27;20038;-76
2023/07/02 13:06:44;;;;;;;10.90;6.10;;;;;;;34.63;56.64;100471.50;21210589;27;20050;-76
2023/07/02 13:17:08;;;;;;;12.52;7.78;;;;;;;34.56;53.58;100473.03;21247227;27;20301;-76
2023/07/02 13:27:31;;;;;;;10.27;7.22;;;;;;;34.67;51.87;100474.81;21181361;27;20042;-76
2023/07/02 13:37:55;;;;;;;11.95;6.78;;;;;;;34.33;53.28;100450.38;21199460;27;20455;-76
2023/07/02 13:48:18;;;;;;;10.75;6.10;;;;;;;34.28;57.71;100440.84;21184158;27;20043;-76
2023/07/02 13:58:23;;;;;;;10.43;5.50;;;;;;;34.17;59.56;100422.59;21214735;27;20077;-77
2023/07/02 14:08:48;;;;;;;12.60;6.43;;;;;;;34.09;59.94;100403.19;21249306;27;20364;-76
2023/07/02 14:19:12;;;;;;;11.63;6.30;;;;;;;33.82;65.16;100384.56;21184248;27;20373;-76
2023/07/02 14:29:36;;;;;;;14.38;6.10;;;;;;;33.38;73.12;100373.81;21164425;27;20400;-76
2023/07/02 14:39:56;;;;;;;10.05;5.70;;;;;;;33.36;74.04;100362.13;21189421;27;20044;-75
2023/07/02 14:50:20;;;;;;;11.65;6.15;;;;;;;33.15;73.29;100362.94;21160041;27;20044;-77
2023/07/02 15:00:25;;;;;;;12.80;6.57;;;;;;;32.89;72.44;100360.66;21198861;27;20388;-77
2023/07/02 15:10:51;;;;;;;10.95;6.70;;;;;;;32.69;70.80;100354.13;21209106;27;20039;-77
2023/07/02 15:21:13;;;;;;;11.07;5.93;;;;;;;32.31;74.34;100344.44;21205398;27;20567;-76
2023/07/02 15:31:40;;;;;;;11.43;6.30;;;;;;;32.07;78.20;100357.34;21143651;27;20047;-76
2023/07/02 15:42:03;;;;;;;;;;;;;;;31.53;84.29;100368.00;21199350;27;20396;-77
2023/07/02 15:52:27;;;;;;;10.02;6.30;;;;;;;31.06;85.61;100377.09;21164128;27;19927;-77
2023/07/02 16:02:50;;;;;;;12.85;6.60;;;;;;;30.76;87.96;100367.47;21196166;27;20494;-77
2023/07/02 16:13:14;;;;;;;13.82;6.93;;;;;;;30.48;84.85;100381.38;21192787;27;20402;-77
2023/07/02 16:23:36;;;;;;;18.60;7.53;;;;;;;30.20;95.84;100377.03;21177391;27;20047;-76
2023/07/02 16:34:00;;;;;;;14.70;7.07;;;;;;;29.96;93.25;100366.06;21175946;27;20062;-77
2023/07/02 16:44:25;;;;;;;12.40;6.97;;;;;;;29.73;97.15;100366.81;21187887;27;20108;-76
2023/07/02 16:54:51;;;;;;;11.57;7.10;;;;;;;29.40;100.00;100367.28;21177770;27;20507;-76
2023/07/02 17:05:14;;;;;;;13.65;6.90;;;;;;;29.15;99.46;100365.31;21199455;27;20043;-77
2023/07/02 17:15:38;;;;;;;13.10;7.05;;;;;;;28.93;99.56;100375.91;21165669;27;20189;-77
2023/07/02 17:26:05;;;;;;;15.43;7.55;;;;;;;28.71;98.09;100372.81;21167379;27;20057;-76
2023/07/02 17:36:31;;;;;;;12.77;6.53;;;;;;;28.53;97.07;100377.63;21198075;27;20146;-76
2023/07/02 17:46:56;;;;;;;10.52;6.78;;;;;;;28.36;97.24;100378.69;21210152;28;20036;-77
2023/07/02 17:57:21;;;;;;;13.40;6.80;;;;;;;28.18;100.00;100379.00;21193939;28;20491;-76
2023/07/02 18:07:43;;;;;;;10.52;6.10;;;;;;;28.00;100.00;100386.44;21189266;28;20093;-76
2023/07/02 18:18:09;;;;;;;9.80;6.25;;;;;;;27.83;100.00;100413.75;21132145;27;20054;-76
2023/07/02 18:28:33;;;;;;;10.45;6.35;;;;;;;27.60;100.00;100410.59;21226678;27;20436;-77
2023/07/02 18:38:57;;;;;;;9.48;5.97;;;;;;;27.49;100.00;100413.06;21214636;27;20047;-77
2023/07/02 18:49:19;;;;;;;9.02;5.47;;;;;;;27.39;100.00;100430.81;21228929;27;20055;-77
2023/07/02 18:59:48;;;;;;;12.40;6.20;;;;;;;27.25;100.00;100438.91;21219937;27;20050;-77
2023/07/02 19:10:12;;;;;;;8.10;4.78;;;;;;;27.08;100.00;100445.31;21190092;27;20047;-77
2023/07/02 19:20:18;;;;;;;7.20;3.55;;;;;;;27.01;87.39;100451.16;21227305;27;20051;-76
2023/07/02 19:30:41;;;;;;;8.38;4.63;;;;;;;27.00;80.72;100444.88;21225864;27;20379;-77
2023/07/02 19:41:05;;;;;;;12.52;4.30;;;;;;;26.91;82.23;100448.97;21221671;27;20055;-77
2023/07/02 19:51:28;;;;;;;9.25;4.40;;;;;;;26.82;80.51;100449.47;21220492;27;20503;-76
2023/07/02 20:01:32;;;;;;;7.47;4.25;;;;;;;26.80;65.78;100436.97;21223129;27;20495;-76
2023/07/02 20:11:55;;;;;;;7.15;4.63;;;;;;;26.80;60.32;100429.72;21196454;27;20043;-75
2023/07/02 20:22:21;;;;;;;8.52;4.18;;;;;;;26.74;59.53;100440.91;21213507;27;20047;-76
2023/07/02 20:32:44;;;;;;;7.13;3.88;;;;;;;26.66;56.48;100435.03;21170702;27;20039;-75
2023/07/02 20:43:11;;;;;;;7.38;4.03;;;;;;;26.62;54.86;100428.06;21189354;27;20050;-76
2023/07/02 20:53:34;;;;;;;7.70;4.20;;;;;;;26.63;53.46;100423.50;21182597;27;20142;-75
2023/07/02 21:04:00;;;;;;;6.03;3.85;;;;;;;26.59;53.70;100420.97;21185637;27;20534;-76
2023/07/02 21:14:22;;;;;;;6.15;3.75;;;;;;;26.57;54.46;100406.66;21179090;27;20051;-77
2023/07/02 21:24:51;;;;;;;5.65;3.95;;;;;;;26.51;61.29;100403.41;21183128;27;20472;-76
2023/07/02 21:35:15;;;;;;;8.95;4.53;;;;;;;26.37;69.25;100406.88;21169956;27;20573;-77
2023/07/02 21:45:39;;;;;;;9.60;4.63;;;;;;;26.23;86.29;100409.44;21181176;28;20059;-76
2023/07/02 21:56:01;;;;;;;8.18;3.85;;;;;;;26.15;84.87;100395.44;21199618;27;20112;-77
2023/07/02 22:06:26;;;;;;;8.02;4.65;;;;;;;26.06;98.88;100380.56;21206835;27;20126;-77
2023/07/02 22:16:48;;;;;;;9.10;4.85;;;;;;;25.97;100.00;100381.09;21210876;27;20547;-76
2023/07/02 22:27:12;;;;;;;9.73;4.78;;;;;;;25.88;100.00;100378.00;21201679;27;20051;-76
2023/07/02 22:37:36;;;;;;;11.88;5.60;;;;;;;25.82;100.00;100387.31;21211049;27;20691;-76
2023/07/02 22:48:00;;;;;;;8.05;4.60;;;;;;;25.75;100.00;100383.19;21213170;27;20100;-77
2023/07/02 22:58:23;;;;;;;11.27;5.22;;;;;;;25.73;100.00;100393.22;21208407;27;20043;-76
2023/07/02 23:08:47;;;;;;;7.95;4.95;;;;;;;25.75;100.00;100394.00;21193727;27;20154;-77
2023/07/02 23:19:04;;;;;;;8.25;4.95;;;;;;;25.73;100.00;100413.00;21199321;27;20058;-77
2023/07/02 23:29:29;;;;;;;10.15;5.15;;;;;;;25.82;100.00;100408.97;21187769;27;20040;-76
2023/07/02 23:39:52;;;;;;;10.02;5.22;;;;;;;25.89;100.00;100420.31;21213550;27;20077;-76
2023/07/02 23:50:18;;;;;;;8.30;5.50;;;;;;;25.92;100.00;100417.47;21256438;27;20046;-77
